createdAt,value
2023-03-20T00:02:18.550Z,6.40
2023-03-20T00:04:47.434Z,6.50
2023-03-20T00:07:15.763Z,6.50
2023-03-20T00:09:44.455Z,6.50
2023-03-20T00:12:15.832Z,6.50
2023-03-20T00:14:45.944Z,6.60
2023-03-20T00:17:20.257Z,6.70
2023-03-20T00:19:49.059Z,6.70
2023-03-20T00:22:17.394Z,6.70
2023-03-20T00:24:46.215Z,6.80
2023-03-20T00:27:16.630Z,6.80
2023-03-20T00:29:46.739Z,6.80
2023-03-20T00:32:16.068Z,6.80
2023-03-20T00:34:44.644Z,6.90
2023-03-20T00:37:12.931Z,6.90
2023-03-20T00:39:41.717Z,6.90
2023-03-20T00:42:17.631Z,6.90
2023-03-20T00:44:52.483Z,6.90
2023-03-20T00:47:23.342Z,6.90
2023-03-20T00:49:54.239Z,6.90
2023-03-20T00:52:23.777Z,6.90
2023-03-20T00:54:52.243Z,6.90
2023-03-20T00:57:25.412Z,7.00
2023-03-20T01:00:00.162Z,7.00
2023-03-20T01:02:31.429Z,7.00
2023-03-20T01:05:00.798Z,7.00
2023-03-20T01:07:29.274Z,7.10
2023-03-20T01:09:58.076Z,7.10
2023-03-20T01:12:26.655Z,7.00
2023-03-20T01:14:58.728Z,7.10
2023-03-20T01:17:28.798Z,7.10
2023-03-20T01:19:57.352Z,7.10
2023-03-20T01:22:25.730Z,7.10
2023-03-20T01:24:54.307Z,7.10
2023-03-20T01:27:23.641Z,7.10
2023-03-20T01:29:52.201Z,7.10
2023-03-20T01:32:21.903Z,7.10
2023-03-20T01:34:51.366Z,7.20
2023-03-20T01:37:24.904Z,7.20
2023-03-20T01:39:53.919Z,7.20
2023-03-20T01:42:22.551Z,7.20
2023-03-20T01:44:51.240Z,7.30
2023-03-20T01:47:24.110Z,7.20
2023-03-20T01:50:28.971Z,7.30
2023-03-20T01:53:08.590Z,7.30
2023-03-20T01:55:39.584Z,7.30
2023-03-20T01:58:14.887Z,7.30
2023-03-20T02:00:43.551Z,7.30
2023-03-20T02:03:14.028Z,7.30
2023-03-20T02:05:43.540Z,7.20
2023-03-20T02:08:18.824Z,7.30
2023-03-20T02:10:48.560Z,7.30
2023-03-20T02:13:17.972Z,7.30
2023-03-20T02:16:02.913Z,7.30
2023-03-20T02:18:33.469Z,7.30
2023-03-20T02:21:26.186Z,7.30
2023-03-20T02:24:24.176Z,7.30
2023-03-20T02:27:03.597Z,7.30
2023-03-20T02:30:03.220Z,7.20
2023-03-20T02:33:08.123Z,7.30
2023-03-20T02:36:03.420Z,7.20
2023-03-20T02:38:56.251Z,7.20
2023-03-20T02:41:31.524Z,7.20
2023-03-20T02:44:07.432Z,7.20
2023-03-20T02:46:47.401Z,7.30
2023-03-20T02:49:28.017Z,7.30
2023-03-20T02:52:02.432Z,7.30
2023-03-20T02:54:40.808Z,7.30
2023-03-20T02:57:15.012Z,7.40
2023-03-20T02:59:47.758Z,7.40
2023-03-20T03:02:21.235Z,7.40
2023-03-20T03:04:54.190Z,7.40
2023-03-20T03:07:27.319Z,7.40
2023-03-20T03:10:01.609Z,7.40
2023-03-20T03:12:34.348Z,7.40
2023-03-20T03:15:06.298Z,7.40
2023-03-20T03:17:38.152Z,7.40
2023-03-20T03:20:10.517Z,7.40
2023-03-20T03:22:38.782Z,7.40
2023-03-20T03:25:13.718Z,7.40
2023-03-20T03:27:44.699Z,7.40
2023-03-20T03:30:17.439Z,7.30
2023-03-20T03:32:48.601Z,7.30
2023-03-20T03:35:19.876Z,7.40
2023-03-20T03:37:57.627Z,7.40
2023-03-20T03:40:35.626Z,7.40
2023-03-20T03:43:08.560Z,7.40
2023-03-20T03:45:42.941Z,7.40
2023-03-20T03:48:15.962Z,7.40
2023-03-20T03:50:49.470Z,7.30
2023-03-20T03:53:22.156Z,7.30
2023-03-20T03:55:56.621Z,7.30
2023-03-20T03:58:30.585Z,7.30
2023-03-20T04:01:01.499Z,7.30
2023-03-20T04:03:33.999Z,7.30
2023-03-20T04:06:05.866Z,7.30
2023-03-20T04:08:35.224Z,7.30
2023-03-20T04:11:05.130Z,7.30
2023-03-20T04:13:33.593Z,7.30
2023-03-20T04:16:02.123Z,7.30
2023-03-20T04:18:30.428Z,7.30
2023-03-20T04:20:58.842Z,7.30
2023-03-20T04:23:27.241Z,7.30
2023-03-20T04:25:55.771Z,7.30
2023-03-20T04:28:25.611Z,7.30
2023-03-20T04:30:55.155Z,7.30
2023-03-20T04:33:23.828Z,7.30
2023-03-20T04:35:52.435Z,7.30
2023-03-20T04:38:21.627Z,7.30
2023-03-20T04:40:50.660Z,7.30
2023-03-20T04:43:19.123Z,7.30
2023-03-20T04:45:49.137Z,7.30
2023-03-20T04:48:17.481Z,7.40
2023-03-20T04:50:48.462Z,7.40
2023-03-20T04:53:17.056Z,7.40
2023-03-20T04:55:45.793Z,7.30
2023-03-20T04:58:14.197Z,7.40
2023-03-20T05:00:42.911Z,7.40
2023-03-20T05:03:12.640Z,7.40
2023-03-20T05:05:41.307Z,7.40
2023-03-20T05:08:09.509Z,7.50
2023-03-20T05:10:38.287Z,7.50
2023-03-20T05:13:06.495Z,7.50
2023-03-20T05:15:35.409Z,7.50
2023-03-20T05:18:03.781Z,7.60
2023-03-20T05:20:33.699Z,7.60
2023-03-20T05:23:03.130Z,7.70
2023-03-20T05:25:33.167Z,7.70
2023-03-20T05:28:01.571Z,7.70
2023-03-20T05:30:30.164Z,7.70
2023-03-20T05:32:58.357Z,7.80
2023-03-20T05:35:26.946Z,7.80
2023-03-20T05:37:56.561Z,7.80
2023-03-20T05:40:25.516Z,7.80
2023-03-20T05:42:53.986Z,7.80
2023-03-20T05:45:22.547Z,7.80
2023-03-20T05:47:51.466Z,7.80
2023-03-20T05:50:20.555Z,7.80
2023-03-20T05:52:49.149Z,7.80
2023-03-20T05:55:19.351Z,7.80
2023-03-20T05:57:47.874Z,7.80
2023-03-20T06:00:17.354Z,7.80
2023-03-20T06:02:47.519Z,7.90
2023-03-20T06:05:16.555Z,8.00
2023-03-20T06:07:45.350Z,8.00
2023-03-20T06:10:14.022Z,8.10
2023-03-20T06:12:43.634Z,8.20
2023-03-20T06:15:13.190Z,8.20
2023-03-20T06:17:41.515Z,8.30
2023-03-20T06:20:11.521Z,8.30
2023-03-20T06:22:39.939Z,8.30
2023-03-20T06:25:09.276Z,8.30
2023-03-20T06:27:37.437Z,8.30
2023-03-20T06:30:08.731Z,8.30
2023-03-20T06:32:37.088Z,8.30
2023-03-20T06:35:07.670Z,8.40
2023-03-20T06:37:36.495Z,8.40
2023-03-20T06:40:06.788Z,8.40
2023-03-20T06:42:35.121Z,8.40
2023-03-20T06:45:03.971Z,8.50
2023-03-20T06:47:33.732Z,8.50
2023-03-20T06:50:02.411Z,8.60
2023-03-20T06:52:30.667Z,8.60
2023-03-20T06:54:59.230Z,8.70
2023-03-20T06:57:27.445Z,8.70
2023-03-20T06:59:56.133Z,8.80
2023-03-20T07:02:24.401Z,8.90
2023-03-20T07:04:54.541Z,8.90
2023-03-20T07:07:22.878Z,9.00
2023-03-20T07:09:51.603Z,9.10
2023-03-20T07:12:20.811Z,9.20
2023-03-20T07:14:50.164Z,9.20
2023-03-20T07:17:18.650Z,9.20
2023-03-20T07:19:47.223Z,9.30
2023-03-20T07:22:22.625Z,9.40
2023-03-20T07:24:52.123Z,9.40
2023-03-20T07:27:21.049Z,9.50
2023-03-20T07:29:49.747Z,9.50
2023-03-20T07:32:18.039Z,9.50
2023-03-20T07:34:47.646Z,9.60
2023-03-20T07:37:17.471Z,9.60
2023-03-20T07:39:45.999Z,9.60
2023-03-20T07:42:14.849Z,9.60
2023-03-20T07:44:43.560Z,9.70
2023-03-20T07:47:11.890Z,9.70
2023-03-20T07:49:41.455Z,9.70
2023-03-20T07:52:09.792Z,9.80
2023-03-20T07:54:39.671Z,9.80
2023-03-20T07:57:07.979Z,9.80
2023-03-20T07:59:36.565Z,9.80
2023-03-20T08:02:04.891Z,9.80
2023-03-20T08:04:33.358Z,9.80
2023-03-20T08:07:02.063Z,9.90
2023-03-20T08:09:30.869Z,9.90
2023-03-20T08:12:00.470Z,9.90
2023-03-20T08:14:28.987Z,10.00
2023-03-20T08:17:12.844Z,10.00
2023-03-20T08:19:42.798Z,10.10
2023-03-20T08:22:11.177Z,10.30
2023-03-20T08:24:39.648Z,10.40
2023-03-20T08:27:09.220Z,10.70
2023-03-20T08:29:37.940Z,11.00
2023-03-20T08:32:06.944Z,11.40
2023-03-20T08:34:35.688Z,11.90
2023-03-20T08:37:04.815Z,12.40
2023-03-20T08:39:34.426Z,12.90
2023-03-20T08:42:02.893Z,13.40
2023-03-20T08:44:32.992Z,13.80
2023-03-20T08:47:01.325Z,14.10
2023-03-20T08:49:29.947Z,14.30
2023-03-20T08:51:58.285Z,14.50
2023-03-20T08:54:27.601Z,14.70
2023-03-20T08:56:55.828Z,14.70
2023-03-20T08:59:24.370Z,14.80
2023-03-20T09:01:54.413Z,14.90
2023-03-20T09:04:23.198Z,15.20
2023-03-20T09:06:52.706Z,15.30
2023-03-20T09:09:26.989Z,15.40
2023-03-20T09:11:55.225Z,15.50
2023-03-20T09:14:24.012Z,15.40
2023-03-20T09:16:53.677Z,15.40
2023-03-20T09:19:22.407Z,15.30
2023-03-20T09:21:50.589Z,15.20
2023-03-20T09:24:19.478Z,15.00
2023-03-20T09:26:47.754Z,14.80
2023-03-20T09:29:16.251Z,14.60
2023-03-20T09:31:44.575Z,14.40
2023-03-20T09:34:14.480Z,14.20
2023-03-20T09:36:42.681Z,14.10
2023-03-20T09:39:11.168Z,13.90
2023-03-20T09:41:55.982Z,13.70
2023-03-20T09:44:40.407Z,13.60
2023-03-20T09:47:21.171Z,13.50
2023-03-20T09:50:05.319Z,13.50
2023-03-20T09:52:36.887Z,13.60
2023-03-20T09:55:13.690Z,13.70
2023-03-20T09:57:43.422Z,13.90
2023-03-20T10:00:18.220Z,14.00
2023-03-20T10:02:51.137Z,14.10
2023-03-20T10:05:25.620Z,14.30
2023-03-20T10:07:56.954Z,14.30
2023-03-20T10:10:32.981Z,14.40
2023-03-20T10:13:15.977Z,14.50
2023-03-20T10:15:50.023Z,14.50
2023-03-20T10:18:25.328Z,14.60
2023-03-20T10:21:01.096Z,14.70
2023-03-20T10:23:37.058Z,14.80
2023-03-20T10:26:10.896Z,14.90
2023-03-20T10:28:44.955Z,15.10
2023-03-20T10:31:27.521Z,15.30
2023-03-20T10:34:10.049Z,15.40
2023-03-20T10:36:54.416Z,15.50
2023-03-20T10:39:38.105Z,15.70
2023-03-20T10:42:16.393Z,15.80
2023-03-20T10:44:50.216Z,15.80
2023-03-20T10:47:39.727Z,15.90
2023-03-20T10:50:12.782Z,16.00
2023-03-20T10:52:43.350Z,16.00
2023-03-20T10:55:17.053Z,16.00
2023-03-20T10:57:48.850Z,15.90
2023-03-20T11:00:21.588Z,15.90
2023-03-20T11:02:52.058Z,15.90
2023-03-20T11:05:25.655Z,15.90
2023-03-20T11:08:04.203Z,16.00
2023-03-20T11:10:34.638Z,16.20
2023-03-20T11:13:16.978Z,16.40
2023-03-20T11:15:45.621Z,16.70
2023-03-20T11:18:16.469Z,17.00
2023-03-20T11:20:50.576Z,17.20
2023-03-20T11:23:25.538Z,17.40
2023-03-20T11:25:59.911Z,17.50
2023-03-20T11:28:35.432Z,17.70
2023-03-20T11:31:07.234Z,17.70
2023-03-20T11:33:40.409Z,17.80
2023-03-20T11:36:13.933Z,17.90
2023-03-20T11:38:47.481Z,18.00
2023-03-20T11:41:36.478Z,18.10
2023-03-20T11:44:05.097Z,18.20
2023-03-20T11:46:33.431Z,18.20
2023-03-20T11:49:07.723Z,18.10
2023-03-20T11:51:38.149Z,18.00
2023-03-20T11:54:16.355Z,17.90
2023-03-20T11:56:54.005Z,17.80
2023-03-20T11:59:23.738Z,17.60
2023-03-20T12:01:54.641Z,17.50
2023-03-20T12:04:29.333Z,17.40
2023-03-20T12:07:00.777Z,17.30
2023-03-20T12:09:42.675Z,17.20
2023-03-20T12:12:20.458Z,17.20
2023-03-20T12:14:56.078Z,17.20
2023-03-20T12:17:48.701Z,17.30
2023-03-20T12:20:42.773Z,17.20
2023-03-20T12:23:14.628Z,17.30
2023-03-20T12:25:52.687Z,17.40
2023-03-20T12:28:26.528Z,17.40
2023-03-20T12:31:07.265Z,17.50
2023-03-20T12:33:43.989Z,17.50
2023-03-20T12:36:16.780Z,17.50
2023-03-20T12:38:46.197Z,17.50
2023-03-20T12:41:20.903Z,17.60
2023-03-20T12:44:13.555Z,17.60
2023-03-20T12:46:48.392Z,17.60
2023-03-20T12:49:30.726Z,17.60
2023-03-20T12:52:10.622Z,17.60
2023-03-20T12:54:52.434Z,17.50
2023-03-20T12:57:29.090Z,17.50
2023-03-20T13:00:21.445Z,17.40
2023-03-20T13:03:03.647Z,17.40
2023-03-20T13:05:46.982Z,17.40
2023-03-20T13:08:39.652Z,17.40
2023-03-20T13:11:31.188Z,17.40
2023-03-20T13:14:08.855Z,17.40
2023-03-20T13:16:47.332Z,17.30
2023-03-20T13:19:26.778Z,17.30
2023-03-20T13:22:00.773Z,17.30
2023-03-20T13:24:36.851Z,17.30
2023-03-20T13:27:16.114Z,17.30
2023-03-20T13:29:53.775Z,17.30
2023-03-20T13:32:32.794Z,17.30
2023-03-20T13:35:14.697Z,17.20
2023-03-20T13:37:48.133Z,17.20
2023-03-20T13:40:23.401Z,17.20
2023-03-20T13:42:57.517Z,17.00
2023-03-20T13:45:35.008Z,16.90
2023-03-20T13:48:12.074Z,16.80
2023-03-20T13:50:48.314Z,16.70
2023-03-20T13:53:29.282Z,16.70
2023-03-20T13:56:17.764Z,16.60
2023-03-20T13:59:04.139Z,16.50
2023-03-20T14:01:43.709Z,16.40
2023-03-20T14:04:17.387Z,16.40
2023-03-20T14:06:51.259Z,16.30
2023-03-20T14:09:34.590Z,16.30
2023-03-20T14:12:07.403Z,16.30
2023-03-20T14:14:43.491Z,16.20
2023-03-20T14:17:20.730Z,16.20
2023-03-20T14:19:50.518Z,16.20
2023-03-20T14:22:22.148Z,16.20
2023-03-20T14:24:59.189Z,16.20
2023-03-20T14:27:44.064Z,16.20
2023-03-20T14:30:44.971Z,16.20
2023-03-20T14:33:32.305Z,16.20
2023-03-20T14:36:29.277Z,16.10
2023-03-20T14:39:07.563Z,16.00
2023-03-20T14:41:48.543Z,16.00
2023-03-20T14:44:28.029Z,15.90
2023-03-20T14:47:03.297Z,15.80
2023-03-20T14:49:51.862Z,15.70
2023-03-20T14:52:42.051Z,15.60
2023-03-20T14:55:31.545Z,15.50
2023-03-20T14:58:04.632Z,15.40
2023-03-20T15:00:37.609Z,15.20
2023-03-20T15:03:09.733Z,15.10
2023-03-20T15:05:42.268Z,15.00
2023-03-20T15:08:16.520Z,15.00
2023-03-20T15:10:50.378Z,15.00
2023-03-20T15:13:20.561Z,14.90
2023-03-20T15:15:56.882Z,14.90
2023-03-20T15:18:27.592Z,14.70
2023-03-20T15:20:59.127Z,14.60
2023-03-20T15:23:27.489Z,14.60
2023-03-20T15:25:56.427Z,14.50
2023-03-20T15:28:26.340Z,14.40
2023-03-20T15:30:58.256Z,14.30
2023-03-20T15:33:29.825Z,14.20
2023-03-20T15:36:07.984Z,14.10
2023-03-20T15:38:37.681Z,13.90
2023-03-20T15:41:07.678Z,13.80
2023-03-20T15:43:38.212Z,13.60
2023-03-20T15:46:18.120Z,13.40
2023-03-20T15:48:50.950Z,13.30
2023-03-20T15:51:29.143Z,13.10
2023-03-20T15:53:57.652Z,13.00
2023-03-20T15:56:28.097Z,12.90
2023-03-20T15:58:58.576Z,12.80
2023-03-20T16:01:27.817Z,12.60
2023-03-20T16:04:00.451Z,12.50
2023-03-20T16:06:30.440Z,12.40
2023-03-20T16:09:00.241Z,12.30
2023-03-20T16:11:38.339Z,12.20
2023-03-20T16:14:08.197Z,12.10
2023-03-20T16:16:37.528Z,12.00
2023-03-20T16:19:07.279Z,12.00
2023-03-20T16:21:40.782Z,11.90
2023-03-20T16:24:15.290Z,11.80
2023-03-20T16:26:46.176Z,11.70
2023-03-20T16:29:16.107Z,11.70
2023-03-20T16:31:49.969Z,11.60
2023-03-20T16:34:22.339Z,11.60
2023-03-20T16:36:55.939Z,11.50
2023-03-20T16:39:27.349Z,11.50
2023-03-20T16:42:03.790Z,11.40
2023-03-20T16:44:36.463Z,11.40
2023-03-20T16:47:22.344Z,11.30
2023-03-20T16:50:07.276Z,11.30
2023-03-20T16:52:40.362Z,11.20
2023-03-20T16:55:16.593Z,11.20
2023-03-20T16:57:48.566Z,11.10
2023-03-20T17:00:29.517Z,11.10
2023-03-20T17:03:08.295Z,11.10
2023-03-20T17:05:49.087Z,11.10
2023-03-20T17:08:33.992Z,11.10
2023-03-20T17:11:10.892Z,11.10
2023-03-20T17:13:39.799Z,11.00
2023-03-20T17:16:11.219Z,11.10
2023-03-20T17:18:39.690Z,11.10
2023-03-20T17:21:08.322Z,11.10
2023-03-20T17:23:38.587Z,11.20
2023-03-20T17:26:11.854Z,11.30
2023-03-20T17:28:40.393Z,11.40
2023-03-20T17:31:11.342Z,11.60
2023-03-20T17:33:39.868Z,11.70
2023-03-20T17:36:15.504Z,11.80
2023-03-20T17:38:45.479Z,11.90
2023-03-20T17:41:15.973Z,12.00
2023-03-20T17:43:44.848Z,12.00
2023-03-20T17:46:18.895Z,12.10
2023-03-20T17:48:47.988Z,12.10
2023-03-20T17:51:16.242Z,12.20
2023-03-20T17:53:46.137Z,12.20
2023-03-20T17:56:15.860Z,12.30
2023-03-20T17:58:45.604Z,12.30
2023-03-20T18:01:14.459Z,12.40
2023-03-20T18:03:43.724Z,12.40
2023-03-20T18:06:20.319Z,12.40
2023-03-20T18:08:50.377Z,12.50
2023-03-20T18:11:18.752Z,12.50
2023-03-20T18:13:47.411Z,12.50
2023-03-20T18:16:18.425Z,12.60
2023-03-20T18:18:47.313Z,12.60
2023-03-20T18:21:17.168Z,12.60
2023-03-20T18:23:45.985Z,12.60
2023-03-20T18:26:27.068Z,12.60
2023-03-20T18:28:56.609Z,12.60
2023-03-20T18:31:24.928Z,12.60
2023-03-20T18:33:54.619Z,12.60
2023-03-20T18:36:24.771Z,12.60
2023-03-20T18:38:53.847Z,12.60
2023-03-20T18:41:24.157Z,12.60
2023-03-20T18:43:55.510Z,12.60
2023-03-20T18:46:25.722Z,12.60
2023-03-20T18:48:54.892Z,12.60
2023-03-20T18:51:23.196Z,12.60
2023-03-20T18:53:51.855Z,12.60
2023-03-20T18:56:23.008Z,12.60
2023-03-20T18:58:53.356Z,12.50
2023-03-20T19:01:22.667Z,12.50
2023-03-20T19:03:53.795Z,12.50
2023-03-20T19:06:24.012Z,12.50
2023-03-20T19:08:53.369Z,12.50
2023-03-20T19:11:21.950Z,12.50
2023-03-20T19:13:53.735Z,12.50
2023-03-20T19:16:24.782Z,12.40
2023-03-20T19:18:53.862Z,12.40
2023-03-20T19:21:26.091Z,12.40
2023-03-20T19:23:56.613Z,12.40
2023-03-20T19:26:26.602Z,12.40
2023-03-20T19:28:58.470Z,12.40
2023-03-20T19:31:27.680Z,12.40
2023-03-20T19:33:56.959Z,12.40
2023-03-20T19:36:28.613Z,12.30
2023-03-20T19:38:59.043Z,12.30
2023-03-20T19:41:28.892Z,12.30
2023-03-20T19:43:59.392Z,12.30
2023-03-20T19:46:39.568Z,12.30
2023-03-20T19:49:18.093Z,12.20
2023-03-20T19:51:47.057Z,12.20
2023-03-20T19:54:15.854Z,12.20
2023-03-20T19:56:44.207Z,12.20
2023-03-20T19:59:16.696Z,12.20
2023-03-20T20:01:46.625Z,12.10
2023-03-20T20:04:16.255Z,12.10
2023-03-20T20:06:47.208Z,12.10
2023-03-20T20:09:16.838Z,12.00
2023-03-20T20:11:45.286Z,12.00
2023-03-20T20:14:15.592Z,11.90
2023-03-20T20:16:45.490Z,11.80
2023-03-20T20:19:14.579Z,11.80
2023-03-20T20:24:31.789Z,11.60
2023-03-20T20:27:15.710Z,11.60
2023-03-20T20:29:49.105Z,11.60
2023-03-20T20:32:17.984Z,11.50
2023-03-20T20:38:31.015Z,11.40
2023-03-20T20:40:27.201Z,11.30
2023-03-20T20:43:01.480Z,11.30
2023-03-20T20:45:32.340Z,11.30
2023-03-20T20:48:01.471Z,11.20
2023-03-20T20:50:31.965Z,11.20
2023-03-20T20:53:00.736Z,11.10
2023-03-20T20:55:29.612Z,11.10
2023-03-20T20:57:58.319Z,11.00
2023-03-20T21:00:47.546Z,11.00
2023-03-20T21:03:17.396Z,11.10
2023-03-20T21:05:45.969Z,10.90
2023-03-20T21:08:15.209Z,10.90
2023-03-20T21:10:46.317Z,10.90
2023-03-20T21:13:14.714Z,10.80
2023-03-20T21:15:45.514Z,10.80
2023-03-20T21:18:14.322Z,10.70
2023-03-20T21:20:44.272Z,10.70
2023-03-20T21:23:13.535Z,10.70
2023-03-20T21:25:45.617Z,10.60
2023-03-20T21:28:15.308Z,10.60
2023-03-20T21:31:04.223Z,10.50
2023-03-20T21:33:33.106Z,10.40
2023-03-20T21:36:04.164Z,10.50
2023-03-20T21:39:06.968Z,10.40
2023-03-20T21:41:21.174Z,10.40
2023-03-20T21:43:49.892Z,10.40
2023-03-20T21:46:52.468Z,10.30
2023-03-20T21:49:58.488Z,10.40
2023-03-20T22:03:29.038Z,10.30
2023-03-20T22:06:59.119Z,10.20
2023-03-20T22:12:26.130Z,10.20
2023-03-20T22:32:10.870Z,10.10
2023-03-20T22:34:54.392Z,10.10
2023-03-20T22:43:05.842Z,10.00
2023-03-20T22:45:43.042Z,10.00
2023-03-20T22:48:16.012Z,10.00
2023-03-20T22:50:44.312Z,10.00
2023-03-20T22:53:12.763Z,10.00
2023-03-20T22:55:43.993Z,10.00
2023-03-20T22:58:15.345Z,10.00
2023-03-20T23:00:44.082Z,9.90
2023-03-20T23:03:26.157Z,10.00
2023-03-20T23:06:07.341Z,9.90
2023-03-20T23:08:48.009Z,9.90
2023-03-20T23:11:19.126Z,9.90
2023-03-20T23:13:49.023Z,9.90
2023-03-20T23:16:17.649Z,9.90
2023-03-20T23:18:46.324Z,9.90
2023-03-20T23:21:14.601Z,9.90
2023-03-20T23:23:43.062Z,9.90
2023-03-20T23:26:13.745Z,9.90
2023-03-20T23:28:44.634Z,9.90
2023-03-20T23:31:16.682Z,9.90
2023-03-20T23:33:48.623Z,9.80
2023-03-20T23:36:34.551Z,9.80
2023-03-20T23:39:05.196Z,9.80
2023-03-20T23:44:21.998Z,9.80
2023-03-20T23:46:51.538Z,9.80
2023-03-20T23:49:20.392Z,9.70
2023-03-20T23:51:48.600Z,9.70
2023-03-20T23:54:17.057Z,9.70
2023-03-20T23:56:45.215Z,9.80
2023-03-20T23:59:21.533Z,9.70
